Falls Mills, Virginia
Current Conditions -  °F | °C
As of 4:52 AM on Saturday 25 Oct 2014 (Local Time) from KBLF Reporting Station
Clear Clear  
Wind Chill: 34°   Ceiling: Unl
Heat Index: 40°   Visibility: 10mi
Dew Point: 35°   Wind: 8mph
Humidity: 83%   Direction: 260°W
Pressure: 30.07"   Gusts: NA
Location:  37.28°N, 81.31°W
Report Text: KBLF 250852Z AUTO 26007KT 10SM CLR 04/02 A3007 RMK AO2 SLP173 T00440017 57004
Loading
Personal Weather Stations






























Interactive Weather Map
Tropical Storm Tracking
New forecast layout! Learn more

10-Day Weather Forecast

Advertisements
Track Severe Weather on mobile